Lockwood, Missouri
Current Conditions -  °F | °C
As of 3:52 PM on Thursday 27 Nov 2014 (Local Time) from KSGF Reporting Station
Clear Clear  
Wind Chill: 38°   Ceiling: Unl
Heat Index: 41°   Visibility: 10mi
Dew Point: 19°   Wind: 5mph
Humidity: 41%   Direction: NA
Pressure: 30.42"   Gusts: NA
Location:  37.39°N, 93.95°W
Report Text: KSGF 272152Z VRB04KT 10SM CLR 05/M07 A3042 RMK AO2 SLP311 T00501072
Loading
Personal Weather Stations






























Interactive Weather Map New forecast layout! Learn more

10-Day Weather Forecast

Advertisements
Track Severe Weather on mobile